sensor_id;sensor_type;location;lat;lon;timestamp;P1;durP1;ratioP1;P2;durP2;ratioP2
76887;SDS011;65850;50.988;11.322;2022-12-07T00:01:36;3.47;;;1.90;;
76887;SDS011;65850;50.988;11.322;2022-12-07T00:04:04;2.67;;;1.60;;
76887;SDS011;65850;50.988;11.322;2022-12-07T00:06:40;3.90;;;1.83;;
76887;SDS011;65850;50.988;11.322;2022-12-07T00:09:07;2.47;;;1.65;;
76887;SDS011;65850;50.988;11.322;2022-12-07T00:11:35;2.83;;;1.55;;
76887;SDS011;65850;50.988;11.322;2022-12-07T00:14:02;2.78;;;2.03;;
76887;SDS011;65850;50.988;11.322;2022-12-07T00:16:29;3.90;;;1.75;;
76887;SDS011;65850;50.988;11.322;2022-12-07T00:18:56;3.17;;;2.05;;
76887;SDS011;65850;50.988;11.322;2022-12-07T00:21:23;3.05;;;1.83;;
76887;SDS011;65850;50.988;11.322;2022-12-07T00:23:49;3.92;;;2.00;;
76887;SDS011;65850;50.988;11.322;2022-12-07T00:26:17;3.10;;;1.60;;
76887;SDS011;65850;50.988;11.322;2022-12-07T00:28:47;2.85;;;1.60;;
76887;SDS011;65850;50.988;11.322;2022-12-07T00:31:14;3.78;;;2.38;;
76887;SDS011;65850;50.988;11.322;2022-12-07T00:33:40;2.70;;;1.80;;
76887;SDS011;65850;50.988;11.322;2022-12-07T00:36:08;3.10;;;1.70;;
76887;SDS011;65850;50.988;11.322;2022-12-07T00:38:35;3.35;;;1.83;;
76887;SDS011;65850;50.988;11.322;2022-12-07T00:41:05;3.17;;;1.92;;
76887;SDS011;65850;50.988;11.322;2022-12-07T00:43:31;2.95;;;1.85;;
76887;SDS011;65850;50.988;11.322;2022-12-07T00:45:57;3.15;;;1.83;;
76887;SDS011;65850;50.988;11.322;2022-12-07T00:48:24;4.00;;;1.80;;
76887;SDS011;65850;50.988;11.322;2022-12-07T00:50:50;4.55;;;1.92;;
76887;SDS011;65850;50.988;11.322;2022-12-07T00:53:16;2.28;;;1.60;;
76887;SDS011;65850;50.988;11.322;2022-12-07T00:55:43;1.95;;;1.23;;
76887;SDS011;65850;50.988;11.322;2022-12-07T00:58:09;2.45;;;1.63;;
76887;SDS011;65850;50.988;11.322;2022-12-07T01:00:35;3.55;;;1.88;;
76887;SDS011;65850;50.988;11.322;2022-12-07T01:03:02;2.20;;;1.50;;
76887;SDS011;65850;50.988;11.322;2022-12-07T01:05:28;2.60;;;1.48;;
76887;SDS011;65850;50.988;11.322;2022-12-07T01:07:54;2.83;;;1.70;;
76887;SDS011;65850;50.988;11.322;2022-12-07T01:10:20;3.83;;;1.60;;
76887;SDS011;65850;50.988;11.322;2022-12-07T01:12:46;2.95;;;1.88;;
76887;SDS011;65850;50.988;11.322;2022-12-07T01:15:12;3.53;;;1.77;;
76887;SDS011;65850;50.988;11.322;2022-12-07T01:17:38;2.28;;;1.35;;
76887;SDS011;65850;50.988;11.322;2022-12-07T01:20:05;3.10;;;1.60;;
76887;SDS011;65850;50.988;11.322;2022-12-07T01:22:35;2.45;;;1.63;;
76887;SDS011;65850;50.988;11.322;2022-12-07T01:25:01;2.58;;;1.50;;
76887;SDS011;65850;50.988;11.322;2022-12-07T01:27:28;2.53;;;2.05;;
76887;SDS011;65850;50.988;11.322;2022-12-07T01:29:54;2.75;;;1.60;;
76887;SDS011;65850;50.988;11.322;2022-12-07T01:32:20;2.42;;;1.75;;
76887;SDS011;65850;50.988;11.322;2022-12-07T01:34:47;2.83;;;1.45;;
76887;SDS011;65850;50.988;11.322;2022-12-07T01:37:13;2.40;;;1.40;;
76887;SDS011;65850;50.988;11.322;2022-12-07T01:39:39;2.42;;;1.35;;
76887;SDS011;65850;50.988;11.322;2022-12-07T01:42:09;2.20;;;1.55;;
76887;SDS011;65850;50.988;11.322;2022-12-07T01:45:14;2.58;;;1.75;;
76887;SDS011;65850;50.988;11.322;2022-12-07T01:47:21;3.03;;;1.17;;
76887;SDS011;65850;50.988;11.322;2022-12-07T01:49:47;2.72;;;1.33;;
76887;SDS011;65850;50.988;11.322;2022-12-07T01:54:40;2.55;;;1.80;;
76887;SDS011;65850;50.988;11.322;2022-12-07T01:57:07;2.17;;;1.08;;
76887;SDS011;65850;50.988;11.322;2022-12-07T01:59:34;2.55;;;1.48;;
76887;SDS011;65850;50.988;11.322;2022-12-07T02:02:00;2.45;;;1.30;;
76887;SDS011;65850;50.988;11.322;2022-12-07T02:04:27;2.40;;;1.20;;
76887;SDS011;65850;50.988;11.322;2022-12-07T02:06:53;2.05;;;1.52;;
76887;SDS011;65850;50.988;11.322;2022-12-07T02:09:20;2.92;;;1.95;;
76887;SDS011;65850;50.988;11.322;2022-12-07T02:11:46;2.70;;;2.10;;
76887;SDS011;65850;50.988;11.322;2022-12-07T02:14:12;2.53;;;1.40;;
76887;SDS011;65850;50.988;11.322;2022-12-07T02:16:42;3.28;;;1.35;;
76887;SDS011;65850;50.988;11.322;2022-12-07T02:22:09;2.28;;;1.70;;
76887;SDS011;65850;50.988;11.322;2022-12-07T02:32:13;2.58;;;1.58;;
76887;SDS011;65850;50.988;11.322;2022-12-07T02:37:10;2.53;;;2.00;;
76887;SDS011;65850;50.988;11.322;2022-12-07T02:42:36;2.30;;;1.23;;
76887;SDS011;65850;50.988;11.322;2022-12-07T02:45:03;2.08;;;1.30;;
76887;SDS011;65850;50.988;11.322;2022-12-07T02:47:30;2.63;;;1.50;;
76887;SDS011;65850;50.988;11.322;2022-12-07T02:49:57;2.50;;;1.50;;
76887;SDS011;65850;50.988;11.322;2022-12-07T02:52:23;2.55;;;1.23;;
76887;SDS011;65850;50.988;11.322;2022-12-07T02:54:49;2.30;;;1.42;;
76887;SDS011;65850;50.988;11.322;2022-12-07T02:57:25;2.05;;;1.42;;
76887;SDS011;65850;50.988;11.322;2022-12-07T03:02:38;2.17;;;1.70;;
76887;SDS011;65850;50.988;11.322;2022-12-07T03:07:49;2.33;;;0.85;;
76887;SDS011;65850;50.988;11.322;2022-12-07T03:12:48;2.78;;;1.65;;
76887;SDS011;65850;50.988;11.322;2022-12-07T03:15:21;2.67;;;1.40;;
76887;SDS011;65850;50.988;11.322;2022-12-07T03:17:49;2.53;;;1.30;;
76887;SDS011;65850;50.988;11.322;2022-12-07T03:20:16;2.15;;;1.25;;
76887;SDS011;65850;50.988;11.322;2022-12-07T03:22:43;2.17;;;1.30;;
76887;SDS011;65850;50.988;11.322;2022-12-07T03:25:10;2.45;;;1.67;;
76887;SDS011;65850;50.988;11.322;2022-12-07T03:27:39;2.72;;;1.55;;
76887;SDS011;65850;50.988;11.322;2022-12-07T03:30:08;2.35;;;1.60;;
76887;SDS011;65850;50.988;11.322;2022-12-07T03:32:36;2.33;;;1.20;;
76887;SDS011;65850;50.988;11.322;2022-12-07T03:35:09;1.80;;;1.20;;
76887;SDS011;65850;50.988;11.322;2022-12-07T03:37:39;2.25;;;1.60;;
76887;SDS011;65850;50.988;11.322;2022-12-07T03:40:14;2.22;;;1.50;;
76887;SDS011;65850;50.988;11.322;2022-12-07T03:42:42;2.45;;;1.17;;
76887;SDS011;65850;50.988;11.322;2022-12-07T03:45:08;1.90;;;1.20;;
76887;SDS011;65850;50.988;11.322;2022-12-07T03:47:36;2.88;;;1.42;;
76887;SDS011;65850;50.988;11.322;2022-12-07T03:50:10;2.60;;;1.60;;
76887;SDS011;65850;50.988;11.322;2022-12-07T03:52:40;2.97;;;1.60;;
76887;SDS011;65850;50.988;11.322;2022-12-07T03:57:34;2.47;;;1.42;;
76887;SDS011;65850;50.988;11.322;2022-12-07T04:00:00;2.30;;;1.50;;
76887;SDS011;65850;50.988;11.322;2022-12-07T04:02:27;2.30;;;1.20;;
76887;SDS011;65850;50.988;11.322;2022-12-07T04:04:54;2.53;;;1.67;;
76887;SDS011;65850;50.988;11.322;2022-12-07T04:07:20;2.13;;;1.27;;
76887;SDS011;65850;50.988;11.322;2022-12-07T04:09:46;2.22;;;1.40;;
76887;SDS011;65850;50.988;11.322;2022-12-07T04:12:12;1.67;;;1.00;;
76887;SDS011;65850;50.988;11.322;2022-12-07T04:14:39;2.30;;;1.50;;
76887;SDS011;65850;50.988;11.322;2022-12-07T04:17:05;2.28;;;1.48;;
76887;SDS011;65850;50.988;11.322;2022-12-07T04:19:32;2.15;;;1.30;;
76887;SDS011;65850;50.988;11.322;2022-12-07T04:21:59;1.77;;;1.10;;
76887;SDS011;65850;50.988;11.322;2022-12-07T04:24:26;2.00;;;1.40;;
76887;SDS011;65850;50.988;11.322;2022-12-07T04:26:52;2.17;;;1.27;;
76887;SDS011;65850;50.988;11.322;2022-12-07T04:29:18;2.38;;;1.20;;
76887;SDS011;65850;50.988;11.322;2022-12-07T04:31:44;2.00;;;0.90;;
76887;SDS011;65850;50.988;11.322;2022-12-07T04:34:11;2.08;;;1.15;;
76887;SDS011;65850;50.988;11.322;2022-12-07T04:36:37;2.10;;;1.30;;
76887;SDS011;65850;50.988;11.322;2022-12-07T04:39:04;2.03;;;1.20;;
76887;SDS011;65850;50.988;11.322;2022-12-07T04:41:30;1.98;;;1.13;;
76887;SDS011;65850;50.988;11.322;2022-12-07T04:43:57;1.90;;;1.10;;
76887;SDS011;65850;50.988;11.322;2022-12-07T04:46:24;1.88;;;1.10;;
76887;SDS011;65850;50.988;11.322;2022-12-07T04:48:51;2.08;;;1.25;;
76887;SDS011;65850;50.988;11.322;2022-12-07T04:51:21;1.80;;;1.05;;
76887;SDS011;65850;50.988;11.322;2022-12-07T04:53:48;2.30;;;1.20;;
76887;SDS011;65850;50.988;11.322;2022-12-07T04:56:14;1.85;;;1.20;;
76887;SDS011;65850;50.988;11.322;2022-12-07T04:58:41;1.67;;;1.17;;
76887;SDS011;65850;50.988;11.322;2022-12-07T05:01:07;1.77;;;0.95;;
76887;SDS011;65850;50.988;11.322;2022-12-07T05:03:33;1.52;;;0.88;;
76887;SDS011;65850;50.988;11.322;2022-12-07T05:05:59;2.63;;;1.17;;
76887;SDS011;65850;50.988;11.322;2022-12-07T05:08:25;2.78;;;1.55;;
76887;SDS011;65850;50.988;11.322;2022-12-07T05:10:51;2.33;;;1.45;;
76887;SDS011;65850;50.988;11.322;2022-12-07T05:13:17;1.65;;;1.00;;
76887;SDS011;65850;50.988;11.322;2022-12-07T05:15:43;2.83;;;1.00;;
76887;SDS011;65850;50.988;11.322;2022-12-07T05:18:10;2.30;;;1.40;;
76887;SDS011;65850;50.988;11.322;2022-12-07T05:20:37;2.20;;;0.80;;
76887;SDS011;65850;50.988;11.322;2022-12-07T05:23:04;2.03;;;1.38;;
76887;SDS011;65850;50.988;11.322;2022-12-07T05:25:30;2.13;;;1.10;;
76887;SDS011;65850;50.988;11.322;2022-12-07T05:27:56;1.70;;;1.05;;
76887;SDS011;65850;50.988;11.322;2022-12-07T05:30:23;2.17;;;1.33;;
76887;SDS011;65850;50.988;11.322;2022-12-07T05:32:49;2.58;;;1.23;;
76887;SDS011;65850;50.988;11.322;2022-12-07T05:35:15;2.00;;;0.75;;
76887;SDS011;65850;50.988;11.322;2022-12-07T05:37:41;2.20;;;1.35;;
76887;SDS011;65850;50.988;11.322;2022-12-07T05:40:08;2.08;;;1.42;;
76887;SDS011;65850;50.988;11.322;2022-12-07T05:42:34;2.30;;;1.27;;
76887;SDS011;65850;50.988;11.322;2022-12-07T05:45:00;1.67;;;1.10;;
76887;SDS011;65850;50.988;11.322;2022-12-07T05:47:26;2.33;;;1.95;;
76887;SDS011;65850;50.988;11.322;2022-12-07T05:49:52;1.92;;;1.08;;
76887;SDS011;65850;50.988;11.322;2022-12-07T05:52:18;2.65;;;1.58;;
76887;SDS011;65850;50.988;11.322;2022-12-07T05:54:44;3.65;;;1.67;;
76887;SDS011;65850;50.988;11.322;2022-12-07T05:57:10;3.40;;;1.40;;
76887;SDS011;65850;50.988;11.322;2022-12-07T05:59:36;2.42;;;1.63;;
76887;SDS011;65850;50.988;11.322;2022-12-07T06:02:03;2.97;;;1.50;;
76887;SDS011;65850;50.988;11.322;2022-12-07T06:04:32;2.97;;;1.42;;
76887;SDS011;65850;50.988;11.322;2022-12-07T06:06:58;2.95;;;1.30;;
76887;SDS011;65850;50.988;11.322;2022-12-07T06:09:25;2.50;;;1.27;;
76887;SDS011;65850;50.988;11.322;2022-12-07T06:11:51;3.00;;;1.70;;
76887;SDS011;65850;50.988;11.322;2022-12-07T06:14:36;2.45;;;0.95;;
76887;SDS011;65850;50.988;11.322;2022-12-07T06:17:02;3.00;;;1.25;;
76887;SDS011;65850;50.988;11.322;2022-12-07T06:19:28;2.17;;;1.10;;
76887;SDS011;65850;50.988;11.322;2022-12-07T06:21:55;2.53;;;1.35;;
76887;SDS011;65850;50.988;11.322;2022-12-07T06:24:21;2.38;;;1.40;;
76887;SDS011;65850;50.988;11.322;2022-12-07T06:26:47;2.15;;;1.10;;
76887;SDS011;65850;50.988;11.322;2022-12-07T06:29:13;2.45;;;1.75;;
76887;SDS011;65850;50.988;11.322;2022-12-07T06:31:39;4.32;;;1.33;;
76887;SDS011;65850;50.988;11.322;2022-12-07T06:34:08;2.30;;;1.40;;
76887;SDS011;65850;50.988;11.322;2022-12-07T06:36:34;3.00;;;1.20;;
76887;SDS011;65850;50.988;11.322;2022-12-07T06:39:00;2.40;;;1.40;;
76887;SDS011;65850;50.988;11.322;2022-12-07T06:41:27;3.38;;;1.52;;
76887;SDS011;65850;50.988;11.322;2022-12-07T06:43:53;2.28;;;1.10;;
76887;SDS011;65850;50.988;11.322;2022-12-07T06:46:19;3.17;;;1.33;;
76887;SDS011;65850;50.988;11.322;2022-12-07T06:48:45;2.22;;;1.35;;
76887;SDS011;65850;50.988;11.322;2022-12-07T06:51:11;3.47;;;1.63;;
76887;SDS011;65850;50.988;11.322;2022-12-07T06:53:37;2.60;;;1.33;;
76887;SDS011;65850;50.988;11.322;2022-12-07T06:56:03;2.38;;;1.40;;
76887;SDS011;65850;50.988;11.322;2022-12-07T06:58:30;3.10;;;1.70;;
76887;SDS011;65850;50.988;11.322;2022-12-07T07:00:56;3.53;;;1.55;;
76887;SDS011;65850;50.988;11.322;2022-12-07T07:03:22;2.42;;;1.42;;
76887;SDS011;65850;50.988;11.322;2022-12-07T07:05:48;2.70;;;1.50;;
76887;SDS011;65850;50.988;11.322;2022-12-07T07:08:14;2.22;;;1.20;;
76887;SDS011;65850;50.988;11.322;2022-12-07T07:10:40;2.63;;;1.35;;
76887;SDS011;65850;50.988;11.322;2022-12-07T07:13:07;2.55;;;1.60;;
76887;SDS011;65850;50.988;11.322;2022-12-07T07:15:33;2.38;;;1.50;;
76887;SDS011;65850;50.988;11.322;2022-12-07T07:18:00;1.90;;;1.30;;
76887;SDS011;65850;50.988;11.322;2022-12-07T07:20:26;3.47;;;1.52;;
76887;SDS011;65850;50.988;11.322;2022-12-07T07:22:55;2.38;;;1.35;;
76887;SDS011;65850;50.988;11.322;2022-12-07T07:25:22;3.05;;;1.40;;
76887;SDS011;65850;50.988;11.322;2022-12-07T07:27:48;2.22;;;1.17;;
76887;SDS011;65850;50.988;11.322;2022-12-07T07:30:14;2.08;;;1.30;;
76887;SDS011;65850;50.988;11.322;2022-12-07T07:32:40;2.30;;;1.15;;
76887;SDS011;65850;50.988;11.322;2022-12-07T07:35:06;2.38;;;1.20;;
76887;SDS011;65850;50.988;11.322;2022-12-07T07:37:32;2.10;;;1.17;;
76887;SDS011;65850;50.988;11.322;2022-12-07T07:39:58;2.53;;;0.98;;
76887;SDS011;65850;50.988;11.322;2022-12-07T07:42:24;2.17;;;1.15;;
76887;SDS011;65850;50.988;11.322;2022-12-07T07:44:50;2.42;;;1.42;;
76887;SDS011;65850;50.988;11.322;2022-12-07T07:47:16;2.50;;;1.00;;
76887;SDS011;65850;50.988;11.322;2022-12-07T07:49:43;2.15;;;1.20;;
76887;SDS011;65850;50.988;11.322;2022-12-07T07:52:09;1.92;;;1.10;;
76887;SDS011;65850;50.988;11.322;2022-12-07T07:54:35;2.40;;;1.23;;
76887;SDS011;65850;50.988;11.322;2022-12-07T07:57:01;2.83;;;1.60;;
76887;SDS011;65850;50.988;11.322;2022-12-07T07:59:27;1.85;;;1.00;;
76887;SDS011;65850;50.988;11.322;2022-12-07T08:01:54;2.28;;;1.35;;
76887;SDS011;65850;50.988;11.322;2022-12-07T08:04:20;2.60;;;1.42;;
76887;SDS011;65850;50.988;11.322;2022-12-07T08:06:46;2.83;;;1.02;;
76887;SDS011;65850;50.988;11.322;2022-12-07T08:09:12;2.40;;;1.35;;
76887;SDS011;65850;50.988;11.322;2022-12-07T08:11:38;2.78;;;1.63;;
76887;SDS011;65850;50.988;11.322;2022-12-07T08:14:04;1.83;;;1.15;;
76887;SDS011;65850;50.988;11.322;2022-12-07T08:16:30;2.53;;;1.42;;
76887;SDS011;65850;50.988;11.322;2022-12-07T08:18:56;2.75;;;1.63;;
76887;SDS011;65850;50.988;11.322;2022-12-07T08:21:22;2.50;;;1.67;;
76887;SDS011;65850;50.988;11.322;2022-12-07T08:23:48;3.22;;;1.42;;
76887;SDS011;65850;50.988;11.322;2022-12-07T08:26:15;2.50;;;1.45;;
76887;SDS011;65850;50.988;11.322;2022-12-07T08:28:42;2.15;;;1.52;;
76887;SDS011;65850;50.988;11.322;2022-12-07T08:31:11;2.50;;;1.70;;
76887;SDS011;65850;50.988;11.322;2022-12-07T08:33:38;2.30;;;1.50;;
76887;SDS011;65850;50.988;11.322;2022-12-07T08:36:05;3.15;;;1.30;;
76887;SDS011;65850;50.988;11.322;2022-12-07T08:38:33;2.00;;;1.40;;
76887;SDS011;65850;50.988;11.322;2022-12-07T08:40:59;2.75;;;1.50;;
76887;SDS011;65850;50.988;11.322;2022-12-07T08:43:25;2.60;;;1.92;;
76887;SDS011;65850;50.988;11.322;2022-12-07T08:46:00;2.85;;;1.90;;
76887;SDS011;65850;50.988;11.322;2022-12-07T08:48:29;2.92;;;1.52;;
76887;SDS011;65850;50.988;11.322;2022-12-07T08:50:57;1.80;;;1.30;;
76887;SDS011;65850;50.988;11.322;2022-12-07T08:53:23;2.33;;;1.48;;
76887;SDS011;65850;50.988;11.322;2022-12-07T08:55:49;2.28;;;1.58;;
76887;SDS011;65850;50.988;11.322;2022-12-07T08:58:15;3.10;;;1.52;;
76887;SDS011;65850;50.988;11.322;2022-12-07T09:00:42;2.60;;;1.45;;
76887;SDS011;65850;50.988;11.322;2022-12-07T09:03:08;2.10;;;1.23;;
76887;SDS011;65850;50.988;11.322;2022-12-07T09:05:34;2.40;;;1.42;;
76887;SDS011;65850;50.988;11.322;2022-12-07T09:08:00;2.60;;;1.40;;
76887;SDS011;65850;50.988;11.322;2022-12-07T09:10:27;2.30;;;1.70;;
76887;SDS011;65850;50.988;11.322;2022-12-07T09:12:53;3.00;;;1.60;;
76887;SDS011;65850;50.988;11.322;2022-12-07T09:15:19;2.40;;;1.42;;
76887;SDS011;65850;50.988;11.322;2022-12-07T09:17:45;2.03;;;1.35;;
76887;SDS011;65850;50.988;11.322;2022-12-07T09:20:11;2.58;;;1.83;;
76887;SDS011;65850;50.988;11.322;2022-12-07T09:22:37;2.30;;;1.35;;
76887;SDS011;65850;50.988;11.322;2022-12-07T09:25:04;2.00;;;1.17;;
76887;SDS011;65850;50.988;11.322;2022-12-07T09:27:30;3.35;;;1.63;;
76887;SDS011;65850;50.988;11.322;2022-12-07T09:29:56;2.85;;;1.65;;
76887;SDS011;65850;50.988;11.322;2022-12-07T09:32:22;2.20;;;1.42;;
76887;SDS011;65850;50.988;11.322;2022-12-07T09:34:49;2.88;;;1.58;;
76887;SDS011;65850;50.988;11.322;2022-12-07T09:37:15;2.65;;;1.75;;
76887;SDS011;65850;50.988;11.322;2022-12-07T09:39:41;1.92;;;1.20;;
76887;SDS011;65850;50.988;11.322;2022-12-07T09:42:07;2.38;;;1.38;;
76887;SDS011;65850;50.988;11.322;2022-12-07T09:44:36;2.28;;;1.20;;
76887;SDS011;65850;50.988;11.322;2022-12-07T09:47:02;2.03;;;1.50;;
76887;SDS011;65850;50.988;11.322;2022-12-07T09:49:29;3.17;;;1.35;;
76887;SDS011;65850;50.988;11.322;2022-12-07T09:52:38;2.97;;;1.40;;
76887;SDS011;65850;50.988;11.322;2022-12-07T09:54:47;1.95;;;1.08;;
76887;SDS011;65850;50.988;11.322;2022-12-07T09:57:13;3.40;;;1.83;;
76887;SDS011;65850;50.988;11.322;2022-12-07T09:59:40;2.42;;;1.30;;
76887;SDS011;65850;50.988;11.322;2022-12-07T10:04:50;5.47;;;1.88;;
76887;SDS011;65850;50.988;11.322;2022-12-07T10:07:17;5.65;;;1.58;;
76887;SDS011;65850;50.988;11.322;2022-12-07T10:09:43;2.70;;;1.50;;
76887;SDS011;65850;50.988;11.322;2022-12-07T10:12:10;4.90;;;1.83;;
76887;SDS011;65850;50.988;11.322;2022-12-07T10:14:38;4.28;;;1.30;;
76887;SDS011;65850;50.988;11.322;2022-12-07T10:17:47;3.53;;;1.85;;
76887;SDS011;65850;50.988;11.322;2022-12-07T10:19:59;4.22;;;1.73;;
76887;SDS011;65850;50.988;11.322;2022-12-07T10:22:33;2.85;;;1.30;;
76887;SDS011;65850;50.988;11.322;2022-12-07T10:25:07;3.88;;;1.65;;
76887;SDS011;65850;50.988;11.322;2022-12-07T10:27:33;4.50;;;1.35;;
76887;SDS011;65850;50.988;11.322;2022-12-07T10:29:59;7.88;;;3.45;;
76887;SDS011;65850;50.988;11.322;2022-12-07T10:34:51;7.50;;;3.35;;
76887;SDS011;65850;50.988;11.322;2022-12-07T10:37:18;7.20;;;3.40;;
76887;SDS011;65850;50.988;11.322;2022-12-07T10:39:52;8.05;;;3.33;;
76887;SDS011;65850;50.988;11.322;2022-12-07T10:42:25;10.68;;;3.40;;
76887;SDS011;65850;50.988;11.322;2022-12-07T10:47:37;6.70;;;2.92;;
76887;SDS011;65850;50.988;11.322;2022-12-07T10:52:53;6.35;;;2.72;;
76887;SDS011;65850;50.988;11.322;2022-12-07T11:00:42;3.20;;;1.90;;
76887;SDS011;65850;50.988;11.322;2022-12-07T11:14:19;4.07;;;2.28;;
76887;SDS011;65850;50.988;11.322;2022-12-07T11:21:31;4.57;;;2.13;;
76887;SDS011;65850;50.988;11.322;2022-12-07T11:34:10;3.40;;;1.58;;
76887;SDS011;65850;50.988;11.322;2022-12-07T11:36:41;4.30;;;1.50;;
76887;SDS011;65850;50.988;11.322;2022-12-07T11:39:20;2.42;;;1.63;;
76887;SDS011;65850;50.988;11.322;2022-12-07T11:41:50;5.13;;;2.03;;
76887;SDS011;65850;50.988;11.322;2022-12-07T11:44:31;3.38;;;1.30;;
76887;SDS011;65850;50.988;11.322;2022-12-07T11:47:00;2.72;;;1.50;;
76887;SDS011;65850;50.988;11.322;2022-12-07T11:52:20;3.08;;;1.73;;
76887;SDS011;65850;50.988;11.322;2022-12-07T11:54:48;3.53;;;1.33;;
76887;SDS011;65850;50.988;11.322;2022-12-07T11:57:22;2.78;;;1.40;;
76887;SDS011;65850;50.988;11.322;2022-12-07T11:59:51;3.53;;;1.70;;
76887;SDS011;65850;50.988;11.322;2022-12-07T12:02:21;2.80;;;1.63;;
76887;SDS011;65850;50.988;11.322;2022-12-07T12:04:59;3.65;;;1.30;;
76887;SDS011;65850;50.988;11.322;2022-12-07T12:07:27;2.78;;;1.58;;
76887;SDS011;65850;50.988;11.322;2022-12-07T12:09:58;2.00;;;1.27;;
76887;SDS011;65850;50.988;11.322;2022-12-07T12:22:20;4.38;;;1.10;;
76887;SDS011;65850;50.988;11.322;2022-12-07T12:24:49;2.63;;;1.25;;
76887;SDS011;65850;50.988;11.322;2022-12-07T12:27:26;3.80;;;1.10;;
76887;SDS011;65850;50.988;11.322;2022-12-07T12:29:55;2.55;;;1.48;;
76887;SDS011;65850;50.988;11.322;2022-12-07T12:32:39;2.42;;;1.35;;
76887;SDS011;65850;50.988;11.322;2022-12-07T12:37:54;3.45;;;1.90;;
76887;SDS011;65850;50.988;11.322;2022-12-07T12:42:50;4.80;;;1.40;;
76887;SDS011;65850;50.988;11.322;2022-12-07T12:45:23;3.45;;;1.20;;
76887;SDS011;65850;50.988;11.322;2022-12-07T12:50:20;2.92;;;1.20;;
76887;SDS011;65850;50.988;11.322;2022-12-07T12:52:50;3.60;;;1.40;;
76887;SDS011;65850;50.988;11.322;2022-12-07T12:55:18;3.58;;;1.10;;
76887;SDS011;65850;50.988;11.322;2022-12-07T12:57:46;2.33;;;1.20;;
76887;SDS011;65850;50.988;11.322;2022-12-07T13:00:22;2.28;;;1.35;;
76887;SDS011;65850;50.988;11.322;2022-12-07T13:02:52;2.53;;;1.33;;
76887;SDS011;65850;50.988;11.322;2022-12-07T13:05:23;2.85;;;1.45;;
76887;SDS011;65850;50.988;11.322;2022-12-07T13:07:50;3.33;;;1.00;;
76887;SDS011;65850;50.988;11.322;2022-12-07T13:15:38;1.67;;;0.93;;
76887;SDS011;65850;50.988;11.322;2022-12-07T13:18:22;2.13;;;1.30;;
76887;SDS011;65850;50.988;11.322;2022-12-07T13:20:49;3.65;;;1.40;;
76887;SDS011;65850;50.988;11.322;2022-12-07T13:23:20;2.85;;;1.20;;
76887;SDS011;65850;50.988;11.322;2022-12-07T13:25:54;2.58;;;1.05;;
76887;SDS011;65850;50.988;11.322;2022-12-07T13:28:21;3.05;;;1.48;;
76887;SDS011;65850;50.988;11.322;2022-12-07T13:33:17;2.10;;;1.00;;
76887;SDS011;65850;50.988;11.322;2022-12-07T13:35:44;4.00;;;1.38;;
76887;SDS011;65850;50.988;11.322;2022-12-07T13:38:20;2.83;;;1.40;;
76887;SDS011;65850;50.988;11.322;2022-12-07T13:46:15;3.50;;;1.13;;
76887;SDS011;65850;50.988;11.322;2022-12-07T13:48:45;2.92;;;1.13;;
76887;SDS011;65850;50.988;11.322;2022-12-07T13:51:24;3.33;;;1.20;;
76887;SDS011;65850;50.988;11.322;2022-12-07T13:53:55;2.53;;;1.20;;
76887;SDS011;65850;50.988;11.322;2022-12-07T13:56:22;3.10;;;1.20;;
76887;SDS011;65850;50.988;11.322;2022-12-07T13:58:51;3.60;;;1.38;;
76887;SDS011;65850;50.988;11.322;2022-12-07T14:01:18;2.45;;;1.05;;
76887;SDS011;65850;50.988;11.322;2022-12-07T14:03:44;1.85;;;1.10;;
76887;SDS011;65850;50.988;11.322;2022-12-07T14:06:20;2.15;;;1.23;;
76887;SDS011;65850;50.988;11.322;2022-12-07T14:08:50;2.22;;;1.10;;
76887;SDS011;65850;50.988;11.322;2022-12-07T14:11:19;2.35;;;1.02;;
76887;SDS011;65850;50.988;11.322;2022-12-07T14:16:34;1.92;;;1.27;;
76887;SDS011;65850;50.988;11.322;2022-12-07T14:19:04;2.15;;;1.20;;
76887;SDS011;65850;50.988;11.322;2022-12-07T14:21:32;2.17;;;1.08;;
76887;SDS011;65850;50.988;11.322;2022-12-07T14:24:17;3.40;;;1.50;;
76887;SDS011;65850;50.988;11.322;2022-12-07T14:26:49;1.40;;;0.60;;
76887;SDS011;65850;50.988;11.322;2022-12-07T14:29:18;1.92;;;1.05;;
76887;SDS011;65850;50.988;11.322;2022-12-07T14:34:14;1.80;;;1.13;;
76887;SDS011;65850;50.988;11.322;2022-12-07T14:36:40;2.50;;;1.08;;
76887;SDS011;65850;50.988;11.322;2022-12-07T14:39:06;1.73;;;0.82;;
76887;SDS011;65850;50.988;11.322;2022-12-07T14:41:32;2.63;;;1.25;;
76887;SDS011;65850;50.988;11.322;2022-12-07T14:44:16;1.80;;;1.15;;
76887;SDS011;65850;50.988;11.322;2022-12-07T14:46:42;2.10;;;0.95;;
76887;SDS011;65850;50.988;11.322;2022-12-07T14:49:09;1.83;;;0.80;;
76887;SDS011;65850;50.988;11.322;2022-12-07T14:51:36;2.33;;;1.20;;
76887;SDS011;65850;50.988;11.322;2022-12-07T14:54:04;2.50;;;1.05;;
76887;SDS011;65850;50.988;11.322;2022-12-07T14:56:31;2.30;;;1.10;;
76887;SDS011;65850;50.988;11.322;2022-12-07T14:58:57;1.88;;;1.15;;
76887;SDS011;65850;50.988;11.322;2022-12-07T15:01:23;1.33;;;0.70;;
76887;SDS011;65850;50.988;11.322;2022-12-07T15:03:49;2.63;;;1.10;;
76887;SDS011;65850;50.988;11.322;2022-12-07T15:06:16;2.10;;;1.10;;
76887;SDS011;65850;50.988;11.322;2022-12-07T15:08:42;2.08;;;1.17;;
76887;SDS011;65850;50.988;11.322;2022-12-07T15:11:13;1.98;;;1.25;;
76887;SDS011;65850;50.988;11.322;2022-12-07T15:13:39;1.70;;;0.88;;
76887;SDS011;65850;50.988;11.322;2022-12-07T15:16:24;3.25;;;1.10;;
76887;SDS011;65850;50.988;11.322;2022-12-07T15:18:50;1.75;;;1.08;;
76887;SDS011;65850;50.988;11.322;2022-12-07T15:21:16;1.63;;;1.15;;
76887;SDS011;65850;50.988;11.322;2022-12-07T15:23:42;2.92;;;1.00;;
76887;SDS011;65850;50.988;11.322;2022-12-07T15:26:11;2.80;;;1.15;;
76887;SDS011;65850;50.988;11.322;2022-12-07T15:31:04;2.55;;;1.23;;
76887;SDS011;65850;50.988;11.322;2022-12-07T15:33:36;3.15;;;1.38;;
76887;SDS011;65850;50.988;11.322;2022-12-07T15:36:02;3.80;;;1.23;;
76887;SDS011;65850;50.988;11.322;2022-12-07T15:38:28;2.00;;;1.05;;
76887;SDS011;65850;50.988;11.322;2022-12-07T15:40:55;2.95;;;1.40;;
76887;SDS011;65850;50.988;11.322;2022-12-07T15:43:21;2.33;;;1.15;;
76887;SDS011;65850;50.988;11.322;2022-12-07T15:46:07;2.80;;;1.40;;
76887;SDS011;65850;50.988;11.322;2022-12-07T15:48:33;1.98;;;1.00;;
76887;SDS011;65850;50.988;11.322;2022-12-07T15:51:05;2.35;;;0.70;;
76887;SDS011;65850;50.988;11.322;2022-12-07T15:53:32;2.17;;;1.17;;
76887;SDS011;65850;50.988;11.322;2022-12-07T15:55:58;2.33;;;0.85;;
76887;SDS011;65850;50.988;11.322;2022-12-07T15:58:24;2.45;;;1.00;;
76887;SDS011;65850;50.988;11.322;2022-12-07T16:00:52;2.25;;;1.10;;
76887;SDS011;65850;50.988;11.322;2022-12-07T16:03:18;2.67;;;1.10;;
76887;SDS011;65850;50.988;11.322;2022-12-07T16:05:51;3.17;;;1.23;;
76887;SDS011;65850;50.988;11.322;2022-12-07T16:08:18;1.83;;;0.95;;
76887;SDS011;65850;50.988;11.322;2022-12-07T16:10:44;2.70;;;1.00;;
76887;SDS011;65850;50.988;11.322;2022-12-07T16:13:10;2.17;;;1.20;;
76887;SDS011;65850;50.988;11.322;2022-12-07T16:15:40;2.20;;;1.23;;
76887;SDS011;65850;50.988;11.322;2022-12-07T16:20:33;1.90;;;1.00;;
76887;SDS011;65850;50.988;11.322;2022-12-07T16:22:59;2.30;;;1.10;;
76887;SDS011;65850;50.988;11.322;2022-12-07T16:25:25;2.35;;;1.27;;
76887;SDS011;65850;50.988;11.322;2022-12-07T16:27:52;1.90;;;0.95;;
76887;SDS011;65850;50.988;11.322;2022-12-07T16:30:18;2.00;;;0.82;;
76887;SDS011;65850;50.988;11.322;2022-12-07T16:32:44;1.52;;;0.80;;